Time;durP1;ratioP1;P1;durP2;ratioP2;P2;SDS_P1;SDS_P2;PMS_P1;PMS_P2;Temp;Humidity;BMP_temperature;BMP_pressure;BME280_temperature;BME280_humidity;BME280_pressure;Samples;Min_cycle;Max_cycle;Signal;HPM_P1;HPM_P2
2022/09/28 00:02:25;;;;;;;;;;;20.60;99.90;;;;;;5153001;27;20366;-73
2022/09/28 00:04:51;;;;;;;;;;;20.60;99.90;;;;;;5152832;27;19958;-73
2022/09/28 00:07:16;;;;;;;;;;;20.60;99.90;;;;;;5152518;27;19942;-73
2022/09/28 00:09:42;;;;;;;;;;;20.60;99.90;;;;;;5153123;27;20307;-72
2022/09/28 00:12:09;;;;;;;;;;;20.50;99.90;;;;;;5152384;27;19944;-72
2022/09/28 00:14:35;;;;;;;;;;;20.50;99.90;;;;;;5152453;27;20308;-73
2022/09/28 00:17:01;;;;;;;;;;;20.50;99.90;;;;;;5152573;27;19914;-72
2022/09/28 00:19:27;;;;;;;;;;;20.60;99.90;;;;;;5152450;27;19903;-72
2022/09/28 00:21:53;;;;;;;;;;;20.60;99.90;;;;;;5152449;27;19941;-72
2022/09/28 00:24:19;;;;;;;;;;;20.60;99.90;;;;;;5152397;27;19918;-72
2022/09/28 00:26:50;;;;;;;;;;;20.50;99.90;;;;;;5152052;27;19931;-72
2022/09/28 00:29:17;;;;;;;;;;;20.50;99.90;;;;;;5152145;27;19907;-72
2022/09/28 00:31:43;;;;;;;;;;;20.50;99.90;;;;;;5152341;27;19903;-73
2022/09/28 00:34:09;;;;;;;;;;;20.50;99.90;;;;;;5150861;27;20215;-73
2022/09/28 00:36:35;;;;;;;;;;;20.50;99.90;;;;;;5152666;27;20421;-72
2022/09/28 00:39:06;;;;;;;;;;;20.40;99.90;;;;;;5152146;27;19911;-73
2022/09/28 00:41:31;;;;;;;;;;;20.40;99.90;;;;;;5152527;27;19995;-73
2022/09/28 00:44:16;;;;;;;;;;;20.40;99.90;;;;;;5152544;27;19959;-73
2022/09/28 00:46:41;;;;;;;;;;;20.40;99.90;;;;;;5152139;27;19972;-72
2022/09/28 00:49:10;;;;;;;;;;;20.30;99.90;;;;;;5152379;27;19931;-72
2022/09/28 00:51:37;;;;;;;;;;;20.30;99.90;;;;;;5150886;27;19903;-73
2022/09/28 00:54:03;;;;;;;;;;;20.30;99.90;;;;;;5152198;27;20291;-73
2022/09/28 00:56:31;;;;;;;;;;;20.20;99.90;;;;;;5152428;27;19911;-73
2022/09/28 00:58:58;;;;;;;;;;;20.20;99.90;;;;;;5152175;27;19964;-73
2022/09/28 01:01:25;;;;;;;;;;;20.30;99.90;;;;;;5152222;27;20247;-73
2022/09/28 01:03:52;;;;;;;;;;;20.30;99.90;;;;;;5152116;27;20377;-72
2022/09/28 01:06:19;;;;;;;;;;;20.40;99.90;;;;;;5151844;27;19906;-72
2022/09/28 01:08:45;;;;;;;;;;;20.40;99.90;;;;;;5152055;27;20009;-73
2022/09/28 01:11:11;;;;;;;;;;;20.40;99.90;;;;;;5152017;27;19911;-73
2022/09/28 01:13:38;;;;;;;;;;;20.50;99.90;;;;;;5151970;27;19915;-73
2022/09/28 01:16:06;;;;;;;;;;;20.60;99.90;;;;;;5152002;27;19994;-72
2022/09/28 01:18:32;;;;;;;;;;;20.60;99.90;;;;;;5152033;27;20325;-73
2022/09/28 01:21:10;;;;;;;;;;;20.70;99.90;;;;;;5152034;27;19991;-73
2022/09/28 01:23:36;;;;;;;;;;;20.70;99.90;;;;;;5152130;27;19915;-73
2022/09/28 01:26:18;;;;;;;;;;;20.80;99.90;;;;;;5150540;27;19962;-74
2022/09/28 01:28:45;;;;;;;;;;;20.80;99.90;;;;;;5152352;27;19903;-72
2022/09/28 01:31:13;;;;;;;;;;;20.80;99.90;;;;;;5150406;27;19903;-73
2022/09/28 01:33:41;;;;;;;;;;;20.80;99.90;;;;;;5151860;27;20246;-73
2022/09/28 01:36:07;;;;;;;;;;;20.80;99.90;;;;;;5152162;27;20003;-73
2022/09/28 01:38:37;;;;;;;;;;;20.80;99.90;;;;;;5150919;27;20002;-73
2022/09/28 01:41:03;;;;;;;;;;;20.80;99.90;;;;;;5155731;27;20296;-73
2022/09/28 01:43:30;;;;;;;;;;;20.90;99.90;;;;;;5155413;27;19910;-73
2022/09/28 01:46:01;;;;;;;;;;;20.80;99.90;;;;;;5156006;27;20395;-73
2022/09/28 01:48:52;;;;;;;;;;;20.70;99.90;;;;;;5155443;27;19903;-73
2022/09/28 01:51:22;;;;;;;;;;;20.50;99.90;;;;;;5153279;27;19902;-73
2022/09/28 01:53:52;;;;;;;;;;;20.40;99.90;;;;;;5155685;27;19910;-73
2022/09/28 01:56:24;;;;;;;;;;;20.40;99.90;;;;;;5155289;27;19910;-73
2022/09/28 01:59:02;;;;;;;;;;;20.40;99.90;;;;;;5155616;27;19954;-73
2022/09/28 02:01:31;;;;;;;;;;;20.40;99.90;;;;;;5153915;27;19926;-73
2022/09/28 02:04:15;;;;;;;;;;;20.40;99.90;;;;;;5153615;27;19939;-74
2022/09/28 02:06:46;;;;;;;;;;;20.40;99.90;;;;;;5153695;27;19907;-73
2022/09/28 02:09:16;;;;;;;;;;;20.40;99.90;;;;;;5155350;27;19903;-73
2022/09/28 02:11:46;;;;;;;;;;;20.40;99.90;;;;;;5154762;27;19925;-72
2022/09/28 02:14:14;;;;;;;;;;;20.50;99.90;;;;;;5155219;27;19911;-73
2022/09/28 02:16:41;;;;;;;;;;;20.40;99.90;;;;;;5154941;27;20272;-73
2022/09/28 02:19:09;;;;;;;;;;;20.50;99.90;;;;;;5153194;27;19903;-73
2022/09/28 02:21:47;;;;;;;;;;;20.50;99.90;;;;;;5155004;27;19967;-72
2022/09/28 02:24:15;;;;;;;;;;;20.50;99.90;;;;;;5154682;27;19911;-72
2022/09/28 02:26:42;;;;;;;;;;;20.50;99.90;;;;;;5154718;27;19914;-73
2022/09/28 02:29:08;;;;;;;;;;;20.50;99.90;;;;;;5155033;27;20139;-72
2022/09/28 02:31:34;;;;;;;;;;;20.50;99.90;;;;;;5154599;27;20411;-72
2022/09/28 02:34:00;;;;;;;;;;;20.50;99.90;;;;;;5154180;27;19929;-72
2022/09/28 02:36:27;;;;;;;;;;;20.50;99.90;;;;;;5154180;27;19993;-72
2022/09/28 02:38:53;;;;;;;;;;;20.50;99.90;;;;;;5154588;27;19903;-73
2022/09/28 02:41:19;;;;;;;;;;;20.50;99.90;;;;;;5154358;27;19903;-72
2022/09/28 02:43:45;;;;;;;;;;;20.50;99.90;;;;;;5154095;27;19911;-73
2022/09/28 02:46:23;;;;;;;;;;;20.50;99.90;;;;;;5154629;27;19903;-73
2022/09/28 02:49:02;;;;;;;;;;;20.50;99.90;;;;;;5152630;27;19937;-72
2022/09/28 02:51:46;;;;;;;;;;;20.50;99.90;;;;;;5154243;27;19903;-72
2022/09/28 02:54:21;;;;;;;;;;;20.50;99.90;;;;;;5154195;27;20010;-72
2022/09/28 02:56:56;;;;;;;;;;;20.50;99.90;;;;;;5152310;27;20290;-72
2022/09/28 02:59:22;;;;;;;;;;;20.50;99.90;;;;;;5154006;27;19989;-72
2022/09/28 03:02:06;;;;;;;;;;;20.50;99.90;;;;;;5152342;27;19938;-72
2022/09/28 03:04:38;;;;;;;;;;;20.50;99.90;;;;;;5152089;27;19968;-72
2022/09/28 03:07:18;;;;;;;;;;;20.50;99.90;;;;;;5153721;27;19914;-73
2022/09/28 03:09:59;;;;;;;;;;;20.40;99.90;;;;;;5154257;27;19946;-72
2022/09/28 03:12:28;;;;;;;;;;;20.40;99.90;;;;;;5154102;27;20029;-72
2022/09/28 03:15:07;;;;;;;;;;;20.40;99.90;;;;;;5152545;27;20006;-72
2022/09/28 03:17:33;;;;;;;;;;;20.40;99.90;;;;;;5153971;27;20045;-72
2022/09/28 03:19:58;;;;;;;;;;;20.40;99.90;;;;;;5153845;27;20009;-72
2022/09/28 03:22:24;;;;;;;;;;;20.30;99.90;;;;;;5154327;27;19903;-72
2022/09/28 03:24:50;;;;;;;;;;;20.30;99.90;;;;;;5154253;27;19911;-72
2022/09/28 03:27:16;;;;;;;;;;;20.30;99.90;;;;;;5154648;27;20020;-72
2022/09/28 03:29:42;;;;;;;;;;;20.30;99.90;;;;;;5154104;27;19903;-72
2022/09/28 03:32:07;;;;;;;;;;;20.30;99.90;;;;;;5154528;27;19910;-73
2022/09/28 03:34:34;;;;;;;;;;;20.20;99.90;;;;;;5153942;27;20042;-73
2022/09/28 03:37:00;;;;;;;;;;;20.20;99.90;;;;;;5154131;27;19903;-72
2022/09/28 03:39:26;;;;;;;;;;;20.20;99.90;;;;;;5153718;27;19907;-72
2022/09/28 03:41:52;;;;;;;;;;;20.20;99.90;;;;;;5154054;27;20351;-73
2022/09/28 03:44:17;;;;;;;;;;;20.20;99.90;;;;;;5153632;27;19911;-71
2022/09/28 03:46:43;;;;;;;;;;;20.20;99.90;;;;;;5153834;27;20001;-72
2022/09/28 03:49:09;;;;;;;;;;;20.10;99.90;;;;;;5153603;27;20314;-71
2022/09/28 03:51:35;;;;;;;;;;;20.10;99.90;;;;;;5153553;27;20075;-71
2022/09/28 03:54:01;;;;;;;;;;;20.10;99.90;;;;;;5153705;27;19903;-72
2022/09/28 03:56:26;;;;;;;;;;;20.10;99.90;;;;;;5153809;27;19946;-71
2022/09/28 03:58:52;;;;;;;;;;;20.00;99.90;;;;;;5153916;27;19903;-72
2022/09/28 04:01:18;;;;;;;;;;;20.00;99.90;;;;;;5152960;27;19907;-71
2022/09/28 04:03:44;;;;;;;;;;;20.00;99.90;;;;;;5153674;27;20313;-73
2022/09/28 04:06:10;;;;;;;;;;;20.00;99.90;;;;;;5153630;27;20354;-71
2022/09/28 04:08:36;;;;;;;;;;;20.00;99.90;;;;;;5153479;27;20399;-72
2022/09/28 04:11:02;;;;;;;;;;;20.00;99.90;;;;;;5153254;27;19938;-71
2022/09/28 04:13:28;;;;;;;;;;;20.00;99.90;;;;;;5151679;27;19915;-72
2022/09/28 04:15:55;;;;;;;;;;;20.00;99.90;;;;;;5153332;27;19903;-72
2022/09/28 04:18:21;;;;;;;;;;;20.00;99.90;;;;;;5153081;27;19971;-73
2022/09/28 04:20:47;;;;;;;;;;;20.00;99.90;;;;;;5153279;27;19903;-72
2022/09/28 04:23:14;;;;;;;;;;;20.00;99.90;;;;;;5154931;27;20005;-71
2022/09/28 04:25:40;;;;;;;;;;;20.10;99.90;;;;;;5154847;27;20338;-71
2022/09/28 04:30:52;;;;;;;;;;;20.00;99.90;;;;;;5154577;27;19910;-71
2022/09/28 04:33:18;;;;;;;;;;;20.00;99.90;;;;;;5154445;27;19907;-72
2022/09/28 04:35:44;;;;;;;;;;;20.00;99.90;;;;;;5154429;27;20367;-72
2022/09/28 04:38:09;;;;;;;;;;;20.00;99.90;;;;;;5154889;27;19903;-72
2022/09/28 04:40:35;;;;;;;;;;;20.10;99.90;;;;;;5154286;27;20433;-73
2022/09/28 04:43:01;;;;;;;;;;;20.10;99.90;;;;;;5154628;27;19907;-72
2022/09/28 04:45:27;;;;;;;;;;;20.10;99.90;;;;;;5154184;27;20358;-73
2022/09/28 04:47:53;;;;;;;;;;;20.10;99.90;;;;;;5155077;27;19957;-71
2022/09/28 04:50:19;;;;;;;;;;;20.00;99.90;;;;;;5155182;27;19903;-71
2022/09/28 04:52:45;;;;;;;;;;;20.00;99.90;;;;;;5155069;27;19933;-71
2022/09/28 04:55:12;;;;;;;;;;;20.00;99.90;;;;;;5154195;27;20292;-71
2022/09/28 04:57:38;;;;;;;;;;;20.00;99.90;;;;;;5154027;27;19903;-71
2022/09/28 05:00:04;;;;;;;;;;;20.00;99.90;;;;;;5152657;27;20372;-72
2022/09/28 05:02:30;;;;;;;;;;;20.00;99.90;;;;;;5154396;27;19942;-71
2022/09/28 05:04:57;;;;;;;;;;;20.00;99.90;;;;;;5151932;27;20282;-71
2022/09/28 05:07:26;;;;;;;;;;;20.00;99.90;;;;;;5153779;27;20003;-72
2022/09/28 05:09:52;;;;;;;;;;;20.00;99.90;;;;;;5153339;27;19903;-71
2022/09/28 05:12:42;;;;;;;;;;;20.00;99.90;;;;;;5145729;27;19922;-71
2022/09/28 05:15:08;;;;;;;;;;;20.10;99.90;;;;;;5157313;27;19950;-72
2022/09/28 05:17:34;;;;;;;;;;;20.10;99.90;;;;;;5156639;27;19957;-72
2022/09/28 05:20:01;;;;;;;;;;;20.20;99.90;;;;;;5156700;27;20346;-72
2022/09/28 05:22:27;;;;;;;;;;;20.30;99.90;;;;;;5156483;27;19926;-72
2022/09/28 05:24:53;;;;;;;;;;;20.40;99.90;;;;;;5157850;27;20231;-71
2022/09/28 05:27:19;;;;;;;;;;;20.50;99.90;;;;;;5157936;27;20415;-72
2022/09/28 05:29:45;;;;;;;;;;;20.60;99.90;;;;;;5155289;27;20351;-72
2022/09/28 05:32:11;;;;;;;;;;;20.90;99.90;;;;;;5154819;27;19903;-72
2022/09/28 05:34:37;;;;;;;;;;;21.20;99.90;;;;;;5156508;27;19906;-72
2022/09/28 05:37:03;;;;;;;;;;;21.50;99.90;;;;;;5155104;27;19903;-72
2022/09/28 05:39:28;;;;;;;;;;;21.80;99.90;;;;;;5155304;27;20365;-72
2022/09/28 05:41:56;;;;;;;;;;;22.00;99.90;;;;;;5156296;27;19931;-71
2022/09/28 05:44:22;;;;;;;;;;;22.10;99.90;;;;;;5156481;27;19911;-72
2022/09/28 05:46:48;;;;;;;;;;;22.40;99.90;;;;;;5156843;27;19903;-72
2022/09/28 05:49:14;;;;;;;;;;;22.40;99.90;;;;;;5156787;27;19903;-72
2022/09/28 05:51:39;;;;;;;;;;;22.70;99.90;;;;;;5155969;27;20004;-72
2022/09/28 05:54:05;;;;;;;;;;;22.90;99.90;;;;;;5154086;27;19913;-73
2022/09/28 05:56:31;;;;;;;;;;;22.90;99.90;;;;;;5154356;27;19903;-73
2022/09/28 05:58:57;;;;;;;;;;;22.50;99.90;;;;;;5155661;27;19902;-72
2022/09/28 06:01:23;;;;;;;;;;;22.30;99.90;;;;;;5155861;27;19903;-72
2022/09/28 06:03:49;;;;;;;;;;;22.10;99.90;;;;;;5155628;27;20370;-74
2022/09/28 06:06:15;;;;;;;;;;;22.00;99.90;;;;;;5156113;27;19907;-73
2022/09/28 06:08:45;;;;;;;;;;;21.80;99.90;;;;;;5154696;27;19903;-72
2022/09/28 06:11:11;;;;;;;;;;;21.70;99.90;;;;;;5155669;27;19902;-72
2022/09/28 06:13:38;;;;;;;;;;;21.70;99.90;;;;;;5155416;27;19991;-73
2022/09/28 06:16:06;;;;;;;;;;;21.50;99.90;;;;;;5154283;27;19903;-74
2022/09/28 06:18:32;;;;;;;;;;;21.10;99.90;;;;;;5156568;27;19903;-74
2022/09/28 06:20:58;;;;;;;;;;;20.90;99.90;;;;;;5156946;27;20302;-73
2022/09/28 06:23:24;;;;;;;;;;;20.70;99.90;;;;;;5156691;27;19975;-74
2022/09/28 06:25:50;;;;;;;;;;;20.50;99.90;;;;;;5156436;27;19947;-74
2022/09/28 06:28:15;;;;;;;;;;;20.40;99.90;;;;;;5156665;27;20357;-74
2022/09/28 06:30:42;;;;;;;;;;;20.40;99.90;;;;;;5156987;27;19960;-74
2022/09/28 06:33:09;;;;;;;;;;;20.40;99.90;;;;;;5156613;27;19903;-73
2022/09/28 06:35:35;;;;;;;;;;;20.50;99.90;;;;;;5156960;27;19925;-73
2022/09/28 06:38:01;;;;;;;;;;;20.60;99.90;;;;;;5156402;27;20385;-73
2022/09/28 06:40:27;;;;;;;;;;;21.30;99.90;;;;;;5155042;27;19903;-73
2022/09/28 06:42:54;;;;;;;;;;;23.00;99.90;;;;;;5156170;27;19903;-73
2022/09/28 06:45:24;;;;;;;;;;;25.30;99.90;;;;;;5155007;27;19947;-73
2022/09/28 06:47:53;;;;;;;;;;;26.60;99.90;;;;;;5154777;27;19944;-74
2022/09/28 06:50:19;;;;;;;;;;;27.60;99.90;;;;;;5156330;27;19903;-73
2022/09/28 06:52:48;;;;;;;;;;;29.10;99.90;;;;;;5156540;27;20247;-74
2022/09/28 06:55:14;;;;;;;;;;;29.90;99.90;;;;;;5156142;27;19928;-73
2022/09/28 06:57:39;;;;;;;;;;;30.80;99.90;;;;;;5156226;27;19902;-74
2022/09/28 07:00:06;;;;;;;;;;;31.10;99.90;;;;;;5156306;27;19953;-74
2022/09/28 07:02:31;;;;;;;;;;;30.80;99.90;;;;;;5156378;27;19986;-75
2022/09/28 07:04:57;;;;;;;;;;;30.60;99.90;;;;;;5156151;27;19911;-74
2022/09/28 07:07:23;;;;;;;;;;;31.30;99.90;;;;;;5154838;27;19903;-75
2022/09/28 07:09:53;;;;;;;;;;;32.40;99.90;;;;;;5156145;27;19903;-75
2022/09/28 07:12:20;;;;;;;;;;;33.30;99.90;;;;;;5154710;27;20026;-74
2022/09/28 07:14:46;;;;;;;;;;;33.70;99.90;;;;;;5154352;27;19915;-74
2022/09/28 07:17:11;;;;;;;;;;;33.90;99.90;;;;;;5156065;27;19913;-75
2022/09/28 07:19:37;;;;;;;;;;;34.00;99.90;;;;;;5154203;27;19948;-74
2022/09/28 07:22:03;;;;;;;;;;;33.50;99.90;;;;;;5156219;27;19903;-74
2022/09/28 07:24:29;;;;;;;;;;;33.50;99.90;;;;;;5155963;27;19915;-73
2022/09/28 07:26:55;;;;;;;;;;;33.30;99.90;;;;;;5155830;27;19903;-74
2022/09/28 07:29:21;;;;;;;;;;;32.80;99.90;;;;;;5155169;27;19903;-74
2022/09/28 07:31:47;;;;;;;;;;;32.20;99.90;;;;;;5155663;27;19903;-73
2022/09/28 07:34:12;;;;;;;;;;;31.80;99.90;;;;;;5155018;27;19970;-73
2022/09/28 07:36:38;;;;;;;;;;;31.20;99.90;;;;;;5154725;27;19903;-73
2022/09/28 07:39:04;;;;;;;;;;;30.30;99.90;;;;;;5153653;27;19903;-74
2022/09/28 07:41:33;;;;;;;;;;;29.60;99.90;;;;;;5155136;27;19903;-73
2022/09/28 07:44:28;;;;;;;;;;;28.90;99.90;;;;;;5153781;27;20327;-73
2022/09/28 07:46:55;;;;;;;;;;;28.80;99.90;;;;;;5154697;27;20325;-73
2022/09/28 07:49:21;;;;;;;;;;;29.00;99.90;;;;;;5155400;27;19903;-73
2022/09/28 07:51:47;;;;;;;;;;;28.70;99.90;;;;;;5155058;27;20239;-73
2022/09/28 07:54:13;;;;;;;;;;;28.90;99.90;;;;;;5152671;27;19903;-73
2022/09/28 07:56:39;;;;;;;;;;;28.90;99.90;;;;;;5152428;27;19903;-72
2022/09/28 07:59:26;;;;;;;;;;;28.90;99.90;;;;;;5154314;27;20322;-74
2022/09/28 08:01:52;;;;;;;;;;;28.90;99.90;;;;;;5154039;27;20006;-73
2022/09/28 08:04:19;;;;;;;;;;;29.10;99.90;;;;;;5152279;27;19911;-74
2022/09/28 08:06:45;;;;;;;;;;;29.10;99.90;;;;;;5153758;27;20339;-72
2022/09/28 08:09:10;;;;;;;;;;;29.10;99.90;;;;;;5153510;27;19946;-72
2022/09/28 08:11:37;;;;;;;;;;;28.50;99.90;;;;;;5153634;27;19946;-73
2022/09/28 08:14:03;;;;;;;;;;;28.70;99.90;;;;;;5153445;27;19915;-73
2022/09/28 08:16:29;;;;;;;;;;;28.70;99.90;;;;;;5154078;27;19910;-73
2022/09/28 08:18:56;;;;;;;;;;;28.60;99.90;;;;;;5153012;27;19926;-73
2022/09/28 08:24:06;;;;;;;;;;;28.20;99.90;;;;;;5154729;27;20026;-73
2022/09/28 08:26:32;;;;;;;;;;;28.40;99.90;;;;;;5154309;27;19903;-73
2022/09/28 08:28:58;;;;;;;;;;;28.40;99.90;;;;;;5154953;27;19955;-73
2022/09/28 08:31:24;;;;;;;;;;;28.40;99.90;;;;;;5154344;27;19903;-73
2022/09/28 08:33:53;;;;;;;;;;;28.40;99.90;;;;;;5153668;27;19947;-73
2022/09/28 08:36:19;;;;;;;;;;;28.20;99.90;;;;;;5154398;27;19947;-74
2022/09/28 08:38:45;;;;;;;;;;;27.90;99.90;;;;;;5154365;27;20002;-73
2022/09/28 08:44:22;;;;;;;;;;;27.80;99.90;;;;;;5154507;27;19937;-74
2022/09/28 08:46:52;;;;;;;;;;;27.90;99.90;;;;;;5154375;27;19907;-74
2022/09/28 08:49:18;;;;;;;;;;;28.10;99.90;;;;;;5158610;27;19903;-74
2022/09/28 08:51:48;;;;;;;;;;;28.10;99.90;;;;;;5158371;27;19989;-73
2022/09/28 08:54:36;;;;;;;;;;;28.30;99.90;;;;;;5158043;27;20274;-73
2022/09/28 08:57:04;;;;;;;;;;;28.30;99.90;;;;;;5158223;27;19956;-73
2022/09/28 08:59:42;;;;;;;;;;;28.40;99.90;;;;;;5157786;27;19935;-74
2022/09/28 09:02:13;;;;;;;;;;;28.60;99.90;;;;;;5158259;27;19984;-75
2022/09/28 09:04:39;;;;;;;;;;;28.50;99.90;;;;;;5157844;27;19911;-74
2022/09/28 09:07:11;;;;;;;;;;;28.40;99.90;;;;;;5156227;27;20005;-74
2022/09/28 09:09:54;;;;;;;;;;;27.90;99.90;;;;;;5156681;27;20285;-74
2022/09/28 09:12:43;;;;;;;;;;;27.50;99.90;;;;;;5157952;27;19903;-74
2022/09/28 09:15:27;;;;;;;;;;;27.60;99.90;;;;;;5156754;27;19919;-74
2022/09/28 09:18:00;;;;;;;;;;;27.50;99.90;;;;;;5157689;27;19956;-74
2022/09/28 09:20:36;;;;;;;;;;;27.60;99.90;;;;;;5156107;27;19907;-75
2022/09/28 09:23:27;;;;;;;;;;;27.70;99.90;;;;;;5157967;27;19903;-76
2022/09/28 09:25:57;;;;;;;;;;;27.70;99.90;;;;;;5127552;27;19911;-73
2022/09/28 09:28:26;;;;;;;;;;;27.70;99.90;;;;;;5156031;27;20322;-74
2022/09/28 09:31:07;;;;;;;;;;;27.40;99.90;;;;;;5157726;27;19903;-74
2022/09/28 09:33:45;;;;;;;;;;;26.90;99.90;;;;;;5158418;27;20015;-75
2022/09/28 09:36:28;;;;;;;;;;;26.80;99.90;;;;;;5157523;27;20369;-75
2022/09/28 09:39:32;;;;;;;;;;;26.90;99.90;;;;;;5157654;27;19979;-74
2022/09/28 09:42:23;;;;;;;;;;;27.30;99.90;;;;;;5113610;28;19953;-74
2022/09/28 09:44:58;;;;;;;;;;;27.50;99.90;;;;;;5113373;28;19993;-73
2022/09/28 09:47:46;;;;;;;;;;;27.70;99.90;;;;;;5113828;28;20392;-73
2022/09/28 09:50:32;;;;;;;;;;;27.90;99.90;;;;;;5113353;28;19910;-74
2022/09/28 09:53:03;;;;;;;;;;;28.00;99.90;;;;;;5112435;28;20374;-74
2022/09/28 09:55:33;;;;;;;;;;;28.00;99.90;;;;;;5113309;28;19904;-74
2022/09/28 09:58:17;;;;;;;;;;;28.00;99.90;;;;;;5112827;28;19950;-73
2022/09/28 10:00:44;;;;;;;;;;;28.30;99.90;;;;;;5111977;28;20393;-74
2022/09/28 10:03:18;;;;;;;;;;;28.30;99.90;;;;;;5096058;28;19903;-74
2022/09/28 10:05:46;;;;;;;;;;;28.20;99.90;;;;;;5113458;28;19911;-74
2022/09/28 10:08:12;;;;;;;;;;;27.80;99.90;;;;;;5113042;28;19911;-72
2022/09/28 10:10:44;;;;;;;;;;;27.60;99.90;;;;;;5112993;28;19934;-75
2022/09/28 10:13:10;;;;;;;;;;;27.30;99.90;;;;;;5143132;27;20017;-73
2022/09/28 10:15:35;;;;;;;;;;;27.00;99.90;;;;;;5155086;27;20379;-73
2022/09/28 10:18:09;;;;;;;;;;;27.20;99.90;;;;;;5156316;27;19926;-72
2022/09/28 10:20:38;;;;;;;;;;;27.40;99.90;;;;;;5155222;27;19907;-73
2022/09/28 10:23:05;;;;;;;;;;;27.50;99.90;;;;;;5156385;27;19915;-74
2022/09/28 10:25:35;;;;;;;;;;;27.20;99.90;;;;;;5156295;27;20023;-73
2022/09/28 10:28:01;;;;;;;;;;;27.20;99.90;;;;;;5157092;27;19903;-74
2022/09/28 10:30:27;;;;;;;;;;;27.30;99.90;;;;;;5156376;27;19989;-73
2022/09/28 10:32:59;;;;;;;;;;;27.40;99.90;;;;;;5156516;27;19953;-74
2022/09/28 10:35:28;;;;;;;;;;;27.30;99.90;;;;;;5156446;27;20302;-73
2022/09/28 10:38:13;;;;;;;;;;;26.80;99.90;;;;;;5155815;27;19903;-74
2022/09/28 10:40:39;;;;;;;;;;;27.00;99.90;;;;;;5156116;27;19907;-75
2022/09/28 10:43:07;;;;;;;;;;;27.10;99.90;;;;;;5156060;27;19967;-74
2022/09/28 10:45:34;;;;;;;;;;;27.40;99.90;;;;;;5156033;27;19911;-74
2022/09/28 10:48:02;;;;;;;;;;;27.40;99.90;;;;;;5155886;27;19960;-74
2022/09/28 10:50:29;;;;;;;;;;;27.40;99.90;;;;;;5154629;27;20276;-74
2022/09/28 10:53:09;;;;;;;;;;;27.00;99.90;;;;;;5154529;27;19926;-73
2022/09/28 10:55:35;;;;;;;;;;;27.10;99.90;;;;;;5154894;27;20328;-75
2022/09/28 10:58:22;;;;;;;;;;;27.40;99.90;;;;;;5156451;27;19910;-74
2022/09/28 11:00:48;;;;;;;;;;;27.60;99.90;;;;;;5156128;27;19915;-73
2022/09/28 11:03:24;;;;;;;;;;;27.70;99.90;;;;;;5153245;27;20001;-73
2022/09/28 11:05:54;;;;;;;;;;;27.80;99.90;;;;;;5153740;27;19907;-74
2022/09/28 11:08:25;;;;;;;;;;;27.60;99.90;;;;;;5155929;27;20009;-73
2022/09/28 11:11:08;;;;;;;;;;;27.50;99.90;;;;;;5155465;27;19910;-73
2022/09/28 11:13:44;;;;;;;;;;;27.60;99.90;;;;;;5154920;27;20028;-74
2022/09/28 11:16:22;;;;;;;;;;;27.60;99.90;;;;;;5155520;27;20252;-71
2022/09/28 11:18:48;;;;;;;;;;;27.60;99.90;;;;;;5155302;27;20362;-73
2022/09/28 11:21:15;;;;;;;;;;;27.50;99.90;;;;;;5155936;27;19911;-74
2022/09/28 11:23:53;;;;;;;;;;;27.30;99.90;;;;;;5155345;27;19907;-73
2022/09/28 11:26:19;;;;;;;;;;;27.40;99.90;;;;;;5156203;27;20318;-72
2022/09/28 11:28:49;;;;;;;;;;;27.30;99.90;;;;;;5154049;27;20359;-74
2022/09/28 11:31:15;;;;;;;;;;;27.40;99.90;;;;;;5154066;27;19910;-73
2022/09/28 11:33:43;;;;;;;;;;;27.30;99.90;;;;;;5155739;27;19903;-74
2022/09/28 11:36:12;;;;;;;;;;;27.40;99.90;;;;;;5155342;27;20266;-74
2022/09/28 11:39:00;;;;;;;;;;;27.50;99.90;;;;;;5155638;27;19909;-73
2022/09/28 11:41:38;;;;;;;;;;;26.90;99.90;;;;;;5155500;27;19903;-73
2022/09/28 11:44:04;;;;;;;;;;;27.10;99.90;;;;;;5153677;27;20014;-74
2022/09/28 11:46:29;;;;;;;;;;;27.40;99.90;;;;;;5155567;27;19903;-73
2022/09/28 11:48:58;;;;;;;;;;;27.70;99.90;;;;;;5155009;27;19909;-74
2022/09/28 11:51:28;;;;;;;;;;;27.70;99.90;;;;;;5155213;27;19946;-73
2022/09/28 11:54:01;;;;;;;;;;;27.50;99.90;;;;;;5153395;27;19903;-73
2022/09/28 11:56:34;;;;;;;;;;;27.60;99.90;;;;;;5155202;27;19907;-73
2022/09/28 11:59:05;;;;;;;;;;;27.40;99.90;;;;;;5153328;27;19903;-72
2022/09/28 12:01:39;;;;;;;;;;;27.40;99.90;;;;;;5153524;27;19903;-73
2022/09/28 12:04:14;;;;;;;;;;;27.60;99.90;;;;;;5155137;27;20399;-73
2022/09/28 12:06:44;;;;;;;;;;;27.30;99.90;;;;;;5154627;27;19958;-73
2022/09/28 12:09:15;;;;;;;;;;;27.30;99.90;;;;;;5154937;27;19963;-74
2022/09/28 12:11:43;;;;;;;;;;;27.40;99.90;;;;;;5155108;27;20403;-73
2022/09/28 12:14:18;;;;;;;;;;;27.50;99.90;;;;;;5153069;27;20024;-74
2022/09/28 12:16:45;;;;;;;;;;;27.10;99.90;;;;;;5154555;27;19955;-73
2022/09/28 12:19:19;;;;;;;;;;;26.90;99.90;;;;;;5154809;27;20384;-73
2022/09/28 12:21:50;;;;;;;;;;;27.00;99.90;;;;;;5153266;27;20039;-74
2022/09/28 12:24:16;;;;;;;;;;;27.10;99.90;;;;;;5152901;27;20366;-73
2022/09/28 12:26:54;;;;;;;;;;;27.00;99.90;;;;;;5154722;27;19903;-73
2022/09/28 12:29:23;;;;;;;;;;;27.10;99.90;;;;;;5153149;27;19903;-73
2022/09/28 12:32:04;;;;;;;;;;;27.40;99.90;;;;;;5155015;27;19910;-73
2022/09/28 12:34:30;;;;;;;;;;;27.00;99.90;;;;;;5154740;27;19937;-71
2022/09/28 12:36:56;;;;;;;;;;;26.90;99.90;;;;;;5154634;27;19903;-72
2022/09/28 12:39:40;;;;;;;;;;;26.50;99.90;;;;;;5155294;27;20002;-72
2022/09/28 12:42:05;;;;;;;;;;;26.60;99.90;;;;;;5155208;27;19906;-71
2022/09/28 12:44:40;;;;;;;;;;;26.70;99.90;;;;;;5155165;27;19974;-72
2022/09/28 12:47:24;;;;;;;;;;;26.90;99.90;;;;;;5154952;27;19903;-73
2022/09/28 12:49:50;;;;;;;;;;;26.80;99.90;;;;;;5154846;27;20090;-72
2022/09/28 12:52:26;;;;;;;;;;;26.80;99.90;;;;;;5153892;27;20366;-72
2022/09/28 12:55:11;;;;;;;;;;;26.80;99.90;;;;;;5152509;27;19903;-72
2022/09/28 12:57:48;;;;;;;;;;;26.80;99.90;;;;;;5154010;27;19946;-72
2022/09/28 13:00:16;;;;;;;;;;;26.70;99.90;;;;;;5154168;27;19903;-73
2022/09/28 13:02:57;;;;;;;;;;;27.00;99.90;;;;;;5154159;27;19902;-74
2022/09/28 13:05:43;;;;;;;;;;;27.10;99.90;;;;;;5154475;27;19910;-73
2022/09/28 13:08:21;;;;;;;;;;;27.30;99.90;;;;;;5154165;27;19946;-72
2022/09/28 13:10:54;;;;;;;;;;;27.30;99.90;;;;;;5154601;27;19903;-72
2022/09/28 13:13:30;;;;;;;;;;;27.30;99.90;;;;;;5154018;27;19914;-73
2022/09/28 13:16:00;;;;;;;;;;;27.10;99.90;;;;;;5154201;27;19903;-74
2022/09/28 13:18:38;;;;;;;;;;;27.10;99.90;;;;;;5154776;27;19948;-73
2022/09/28 13:21:10;;;;;;;;;;;27.10;99.90;;;;;;5154471;27;20000;-73
2022/09/28 13:23:38;;;;;;;;;;;27.10;99.90;;;;;;5154387;27;19947;-72
2022/09/28 13:26:23;;;;;;;;;;;27.20;99.90;;;;;;5154639;27;20366;-72
2022/09/28 13:28:50;;;;;;;;;;;27.20;99.90;;;;;;5155227;27;19911;-73
2022/09/28 13:31:21;;;;;;;;;;;27.30;99.90;;;;;;5152596;27;19955;-73
2022/09/28 13:33:49;;;;;;;;;;;27.20;99.90;;;;;;5155075;27;20398;-73
2022/09/28 13:36:24;;;;;;;;;;;27.20;99.90;;;;;;5158204;27;19903;-73
2022/09/28 13:38:50;;;;;;;;;;;27.00;99.90;;;;;;5158722;27;20421;-74
2022/09/28 13:41:18;;;;;;;;;;;26.90;99.90;;;;;;5156945;27;19928;-73
2022/09/28 13:43:44;;;;;;;;;;;26.80;99.90;;;;;;5158004;27;19911;-73
2022/09/28 13:46:25;;;;;;;;;;;26.80;99.90;;;;;;5158052;27;19903;-73
2022/09/28 13:48:57;;;;;;;;;;;26.90;99.90;;;;;;5158348;27;20138;-72
2022/09/28 13:51:34;;;;;;;;;;;26.90;99.90;;;;;;5156860;27;19903;-73
2022/09/28 13:54:07;;;;;;;;;;;26.80;99.90;;;;;;5157077;27;19903;-74
2022/09/28 13:56:42;;;;;;;;;;;26.80;99.90;;;;;;5156767;27;20035;-73
2022/09/28 13:59:19;;;;;;;;;;;26.70;99.90;;;;;;5156556;27;19998;-73
2022/09/28 14:02:05;;;;;;;;;;;26.70;99.90;;;;;;5155156;27;20402;-74
2022/09/28 14:04:51;;;;;;;;;;;26.70;99.90;;;;;;5148430;27;19915;-73
2022/09/28 14:07:23;;;;;;;;;;;26.50;99.90;;;;;;5144070;27;19910;-73
2022/09/28 14:10:09;;;;;;;;;;;26.60;99.90;;;;;;5156681;27;20296;-73
2022/09/28 14:12:34;;;;;;;;;;;26.30;99.90;;;;;;5156900;27;19907;-73
2022/09/28 14:15:01;;;;;;;;;;;26.30;99.90;;;;;;5156689;27;19911;-73
2022/09/28 14:17:26;;;;;;;;;;;26.40;99.90;;;;;;5156327;27;19960;-73
2022/09/28 14:19:52;;;;;;;;;;;26.20;99.90;;;;;;5156603;27;19910;-74
2022/09/28 14:22:18;;;;;;;;;;;26.30;99.90;;;;;;5156516;27;19903;-74
2022/09/28 14:24:56;;;;;;;;;;;26.30;99.90;;;;;;5155119;27;19915;-72
2022/09/28 14:27:31;;;;;;;;;;;26.40;99.90;;;;;;5156392;27;20243;-72
2022/09/28 14:30:15;;;;;;;;;;;26.30;99.90;;;;;;5156817;27;20001;-74
2022/09/28 14:32:51;;;;;;;;;;;26.30;99.90;;;;;;5156327;27;19903;-73
2022/09/28 14:35:30;;;;;;;;;;;26.20;99.90;;;;;;5156421;27;19903;-73
2022/09/28 14:41:26;;;;;;;;;;;26.10;99.90;;;;;;5155565;27;20323;-74
2022/09/28 14:44:06;;;;;;;;;;;25.90;99.90;;;;;;5150145;27;20002;-73
2022/09/28 14:46:55;;;;;;;;;;;25.80;99.90;;;;;;5155699;27;19990;-73